Time;durP1;ratioP1;P1;durP2;ratioP2;P2;SDS_P1;SDS_P2;PMS_P1;PMS_P2;Temp;Humidity;BMP_temperature;BMP_pressure;BME280_temperature;BME280_humidity;BME280_pressure;Samples;Min_cycle;Max_cycle;Signal;HPM_P1;HPM_P2
2022/08/16 00:01:37;;;;;;;45.95;26.40;;;;;;;18.26;100.00;100674.78;7380534;19;20728;-80
2022/08/16 00:04:10;;;;;;;45.20;25.38;;;;;;;18.23;100.00;100675.72;7380852;19;20721;-80
2022/08/16 00:06:41;;;;;;;47.85;27.73;;;;;;;18.24;100.00;100677.47;7379859;19;20007;-78
2022/08/16 00:09:13;;;;;;;48.88;26.10;;;;;;;18.22;100.00;100681.94;7386089;19;20009;-80
2022/08/16 00:11:45;;;;;;;49.65;27.95;;;;;;;18.25;100.00;100683.66;7384931;19;20011;-79
2022/08/16 00:14:25;;;;;;;49.50;28.00;;;;;;;18.22;100.00;100694.34;7385175;19;20006;-80
2022/08/16 00:17:04;;;;;;;50.47;28.80;;;;;;;18.20;100.00;100691.72;7385802;19;20011;-79
2022/08/16 00:19:49;;;;;;;45.03;25.67;;;;;;;18.17;100.00;100688.25;7389511;19;20027;-78
2022/08/16 00:22:22;;;;;;;47.33;26.50;;;;;;;18.14;100.00;100680.34;7383947;19;20374;-79
2022/08/16 00:24:54;;;;;;;49.00;27.40;;;;;;;18.16;100.00;100683.84;7386415;19;20034;-78
2022/08/16 00:27:24;;;;;;;50.75;28.45;;;;;;;18.18;100.00;100682.91;7385865;19;20010;-79
2022/08/16 00:30:01;;;;;;;45.53;27.42;;;;;;;18.16;100.00;100691.81;7387994;19;20011;-79
2022/08/16 00:32:54;;;;;;;49.10;27.42;;;;;;;18.15;100.00;100690.94;7382218;19;20014;-79
2022/08/16 00:35:31;;;;;;;45.20;25.90;;;;;;;18.13;100.00;100689.22;7384755;19;20010;-80
2022/08/16 00:38:06;;;;;;;48.40;27.40;;;;;;;18.14;100.00;100693.63;7381511;19;20014;-75
2022/08/16 00:40:56;;;;;;;47.95;25.70;;;;;;;18.13;100.00;100698.06;7381238;19;20014;-74
2022/08/16 00:43:39;;;;;;;46.25;25.33;;;;;;;18.11;100.00;100698.97;7383246;19;20015;-75
2022/08/16 00:46:20;;;;;;;41.58;25.33;;;;;;;18.09;100.00;100698.13;7391034;19;21097;-78
2022/08/16 00:49:13;;;;;;;45.13;24.23;;;;;;;18.07;100.00;100699.94;7379399;19;20455;-74
2022/08/16 00:51:49;;;;;;;44.83;24.33;;;;;;;18.05;100.00;100697.31;7377029;19;20386;-75
2022/08/16 00:54:27;;;;;;;44.53;25.98;;;;;;;18.06;100.00;100692.91;7373114;19;20010;-73
2022/08/16 00:57:02;;;;;;;;;;;;;;;18.03;100.00;100698.25;7379862;19;20010;-74
2022/08/16 00:59:39;;;;;;;41.85;25.15;;;;;;;18.03;100.00;100699.13;7380581;19;19917;-74
2022/08/16 01:02:31;;;;;;;42.17;23.80;;;;;;;18.00;100.00;100695.66;7379226;19;20042;-74
2022/08/16 01:05:07;;;;;;;40.28;23.48;;;;;;;17.97;100.00;100694.81;7375949;19;20250;-73
2022/08/16 01:07:43;;;;;;;40.63;24.75;;;;;;;17.92;100.00;100686.06;7370337;19;20732;-74
2022/08/16 01:10:22;;;;;;;41.90;24.13;;;;;;;17.91;100.00;100691.41;7374607;19;20011;-74
2022/08/16 01:13:09;;;;;;;38.50;21.73;;;;;;;17.88;100.00;100684.38;7371165;19;20078;-74
2022/08/16 01:15:48;;;;;;;43.20;25.42;;;;;;;17.87;100.00;100687.06;7372782;19;20041;-74
2022/08/16 01:18:25;;;;;;;47.65;25.50;;;;;;;17.85;100.00;100680.91;7373563;19;20003;-74
2022/08/16 01:21:21;;;;;;;43.53;25.63;;;;;;;17.79;100.00;100681.03;7372238;19;20015;-75
2022/08/16 01:24:17;;;;;;;40.55;23.15;;;;;;;17.79;100.00;100681.03;7373187;19;20035;-75
2022/08/16 01:27:13;;;;;;;39.20;24.52;;;;;;;17.76;100.00;100692.56;7372638;19;20015;-75
2022/08/16 01:29:50;;;;;;;38.95;23.23;;;;;;;17.72;100.00;100682.03;7373289;19;20027;-74
2022/08/16 01:32:27;;;;;;;44.70;27.00;;;;;;;17.76;100.00;100684.63;7373654;19;20011;-74
2022/08/16 01:35:10;;;;;;;43.08;25.63;;;;;;;17.79;100.00;100681.03;7373854;19;20040;-74
2022/08/16 01:37:51;;;;;;;50.92;28.65;;;;;;;17.81;100.00;100680.09;7375190;19;20108;-74
2022/08/16 01:40:29;;;;;;;51.78;29.92;;;;;;;17.90;100.00;100677.28;7371987;19;20010;-75
2022/08/16 01:43:02;;;;;;;50.75;28.05;;;;;;;17.90;100.00;100677.28;7373455;19;20021;-75
2022/08/16 01:45:38;;;;;;;51.53;31.10;;;;;;;17.94;100.00;100684.28;7371343;19;20014;-75
2022/08/16 01:48:10;;;;;;;46.70;28.80;;;;;;;17.90;100.00;100671.97;7373143;19;20021;-74
2022/08/16 01:50:52;;;;;;;48.10;28.45;;;;;;;17.88;100.00;100673.78;7375187;19;20015;-75
2022/08/16 01:53:42;;;;;;;49.72;28.67;;;;;;;17.89;100.00;100678.16;7365048;19;20006;-75
2022/08/16 01:56:15;;;;;;;52.97;31.15;;;;;;;17.90;100.00;100671.97;7369414;19;20036;-75
2022/08/16 01:58:59;;;;;;;51.72;29.52;;;;;;;17.94;100.00;100683.41;7372623;19;20563;-75
2022/08/16 02:01:34;;;;;;;48.20;28.85;;;;;;;17.90;100.00;100679.91;7373668;19;20077;-74
2022/08/16 02:04:05;;;;;;;52.33;28.63;;;;;;;17.90;100.00;100684.34;7372085;19;20078;-76
2022/08/16 02:06:43;;;;;;;51.13;28.88;;;;;;;17.94;100.00;100678.97;7374850;19;20017;-74
2022/08/16 02:09:18;;;;;;;47.08;29.15;;;;;;;17.87;100.00;100679.09;7371997;19;20021;-74
2022/08/16 02:11:54;;;;;;;45.80;27.00;;;;;;;17.83;100.00;100680.06;7377542;19;20014;-74
2022/08/16 02:14:31;;;;;;;48.92;28.33;;;;;;;17.79;100.00;100684.56;7370652;19;20445;-74
2022/08/16 02:17:09;;;;;;;44.28;26.23;;;;;;;17.75;100.00;100680.22;7368962;19;20018;-74
2022/08/16 02:19:42;;;;;;;52.53;28.77;;;;;;;17.73;100.00;100676.72;7372285;19;20856;-74
2022/08/16 02:22:31;;;;;;;47.45;28.33;;;;;;;17.70;100.00;100679.41;7377487;19;20007;-74
2022/08/16 02:25:17;;;;;;;47.78;25.25;;;;;;;17.67;100.00;100674.22;7378350;19;20007;-74
2022/08/16 02:27:50;;;;;;;46.38;25.17;;;;;;;17.66;100.00;100676.88;7376602;19;20007;-74
2022/08/16 02:30:24;;;;;;;53.55;28.02;;;;;;;17.63;100.00;100677.78;7375491;19;20032;-75
2022/08/16 02:33:12;;;;;;;42.08;24.30;;;;;;;17.61;100.00;100682.25;7375145;19;20015;-74
2022/08/16 02:35:44;;;;;;;47.95;28.05;;;;;;;17.58;100.00;100679.66;7380263;19;20021;-75
2022/08/16 02:38:32;;;;;;;50.50;28.38;;;;;;;17.57;100.00;100683.19;7378309;19;20116;-75
2022/08/16 02:41:08;;;;;;;49.53;26.48;;;;;;;17.52;100.00;100674.44;7378152;19;20016;-75
2022/08/16 02:43:43;;;;;;;52.58;29.05;;;;;;;17.51;100.00;100675.34;7376661;19;20017;-74
2022/08/16 02:46:13;;;;;;;55.08;27.52;;;;;;;17.49;100.00;100686.00;7374249;19;20018;-76
2022/08/16 02:48:43;;;;;;;53.03;28.50;;;;;;;17.48;100.00;100680.72;7371191;19;20159;-74
2022/08/16 02:51:18;;;;;;;61.20;31.83;;;;;;;17.56;100.00;100686.75;7372695;19;20070;-76
2022/08/16 02:53:53;;;;;;;64.97;35.72;;;;;;;17.59;100.00;100684.03;7367019;19;20554;-79
2022/08/16 02:56:25;;;;;;;72.40;36.85;;;;;;;17.67;100.00;100681.28;7362836;19;20015;-79
2022/08/16 02:59:04;;;;;;;60.17;34.00;;;;;;;17.66;100.00;100677.75;7375610;19;20622;-77
2022/08/16 03:01:45;;;;;;;56.00;31.48;;;;;;;17.62;100.00;100674.25;7373581;19;20039;-78
2022/08/16 03:04:18;;;;;;;62.95;33.63;;;;;;;17.57;100.00;100680.53;7380603;19;20011;-78
2022/08/16 03:07:09;;;;;;;58.65;34.08;;;;;;;17.56;100.00;100681.44;7387436;19;20014;-78
2022/08/16 03:09:42;;;;;;;61.95;35.00;;;;;;;17.52;100.00;100677.97;7385019;19;20014;-78
2022/08/16 03:12:13;;;;;;;63.95;34.83;;;;;;;17.51;100.00;100678.00;7383020;19;20014;-78
2022/08/16 03:14:49;;;;;;;60.08;35.78;;;;;;;17.51;100.00;100678.00;7388010;19;20006;-79
2022/08/16 03:17:22;;;;;;;66.65;38.75;;;;;;;17.49;100.00;100679.81;7381645;19;20010;-77
2022/08/16 03:20:07;;;;;;;71.60;40.40;;;;;;;17.50;100.00;100673.59;7383117;19;20026;-79
2022/08/16 03:22:40;;;;;;;64.75;35.97;;;;;;;17.53;100.00;100687.69;7385453;19;20007;-77
2022/08/16 03:25:14;;;;;;;;;;;;;;;17.50;100.00;100686.84;7385679;19;20021;-77
2022/08/16 03:27:45;;;;;;;65.45;37.28;;;;;;;17.53;100.00;100681.50;7382109;19;19917;-74
2022/08/16 03:30:22;;;;;;;69.80;35.45;;;;;;;17.50;100.00;100682.44;7380759;19;20406;-76
2022/08/16 03:32:54;;;;;;;66.28;35.47;;;;;;;17.50;100.00;100677.13;7377926;19;20014;-76
2022/08/16 03:35:26;;;;;;;65.38;35.30;;;;;;;17.49;100.00;100672.72;7381723;19;20387;-78
2022/08/16 03:38:09;;;;;;;65.68;35.65;;;;;;;17.46;100.00;100674.56;7380335;19;20031;-78
2022/08/16 03:41:01;;;;;;;66.90;36.22;;;;;;;17.43;100.00;100685.22;7380928;19;20299;-79
2022/08/16 03:43:36;;;;;;;64.72;36.28;;;;;;;17.41;100.00;100685.25;7378551;19;20010;-75
2022/08/16 03:46:24;;;;;;;68.90;37.70;;;;;;;17.39;100.00;100683.53;7379318;19;20007;-75
2022/08/16 03:49:14;;;;;;;68.03;37.45;;;;;;;17.36;100.00;100692.41;7378475;19;20025;-74
2022/08/16 03:51:44;;;;;;;71.28;37.63;;;;;;;17.36;100.00;100683.56;7376784;19;20030;-75
2022/08/16 03:54:20;;;;;;;71.65;40.45;;;;;;;17.41;100.00;100692.31;7372630;19;20010;-75
2022/08/16 03:56:51;;;;;;;70.05;38.33;;;;;;;17.39;100.00;100689.69;7375314;19;20035;-75
2022/08/16 03:59:30;;;;;;;71.57;40.28;;;;;;;17.36;100.00;100684.44;7379629;19;20002;-75
2022/08/16 04:02:05;;;;;;;74.75;39.30;;;;;;;17.33;100.00;100695.97;7380174;19;20010;-74
2022/08/16 04:04:52;;;;;;;66.55;35.20;;;;;;;17.30;100.00;100690.72;7382970;19;20014;-74
2022/08/16 04:07:23;;;;;;;68.10;38.75;;;;;;;17.29;100.00;100696.94;7381452;19;20040;-74
2022/08/16 04:09:56;;;;;;;80.38;40.83;;;;;;;17.28;100.00;100696.94;7378481;19;20015;-73
2022/08/16 04:12:49;;;;;;;78.63;39.85;;;;;;;17.29;100.00;100704.88;7387228;19;20009;-74
2022/08/16 04:15:24;;;;;;;80.05;41.50;;;;;;;17.31;100.00;100703.06;7381016;19;20010;-77
2022/08/16 04:18:03;;;;;;;78.13;40.42;;;;;;;17.29;100.00;100699.56;7390495;19;20007;-77
2022/08/16 04:20:41;;;;;;;73.32;40.38;;;;;;;17.28;100.00;100702.25;7386628;19;20017;-78
2022/08/16 04:23:11;;;;;;;74.55;39.92;;;;;;;17.23;100.00;100710.28;7386511;19;20025;-79
2022/08/16 04:25:42;;;;;;;72.60;39.05;;;;;;;17.20;100.00;100715.63;7386231;19;20013;-77
2022/08/16 04:28:15;;;;;;;69.72;39.50;;;;;;;17.19;100.00;100719.19;7386617;19;20021;-78
2022/08/16 04:31:08;;;;;;;70.50;39.97;;;;;;;17.18;100.00;100720.06;7385972;19;20015;-77
2022/08/16 04:33:41;;;;;;;;;;;;;;;17.16;100.00;100718.34;7387850;19;20085;-77
2022/08/16 04:36:20;;;;;;;71.10;36.42;;;;;;;17.15;100.00;100727.19;7380243;19;20332;-77
2022/08/16 04:38:50;;;;;;;78.72;39.63;;;;;;;17.13;100.00;100721.91;7383137;19;20010;-74
2022/08/16 04:41:21;;;;;;;78.07;39.47;;;;;;;17.11;100.00;100715.75;7373036;19;20003;-75
2022/08/16 04:44:08;;;;;;;72.90;37.28;;;;;;;17.10;100.00;100729.91;7375143;19;20007;-74
2022/08/16 04:47:00;;;;;;;75.65;38.38;;;;;;;17.08;100.00;100721.13;7379672;19;20013;-77
2022/08/16 04:49:53;;;;;;;73.28;39.08;;;;;;;17.09;100.00;100722.88;7378302;19;20018;-78
2022/08/16 04:52:23;;;;;;;75.07;36.22;;;;;;;17.07;100.00;100724.66;7373329;19;20014;-77
2022/08/16 04:55:08;;;;;;;71.40;36.97;;;;;;;17.08;100.00;100721.13;7379517;19;20007;-78
2022/08/16 04:57:41;;;;;;;74.75;39.83;;;;;;;17.08;100.00;100731.72;7379640;19;20049;-78
2022/08/16 05:00:15;;;;;;;72.40;37.25;;;;;;;17.07;100.00;100735.25;7377739;19;20024;-78
2022/08/16 05:03:07;;;;;;;72.47;36.30;;;;;;;17.06;100.00;100730.88;7380893;19;20082;-79
2022/08/16 05:05:42;;;;;;;70.95;36.35;;;;;;;17.07;100.00;100735.25;7378531;19;20022;-78
2022/08/16 05:08:25;;;;;;;75.82;37.42;;;;;;;17.08;100.00;100742.31;7379217;19;20011;-78
2022/08/16 05:11:01;;;;;;;70.32;35.80;;;;;;;17.08;100.00;100729.06;7378803;19;20005;-78
2022/08/16 05:13:41;;;;;;;74.05;37.08;;;;;;;17.08;100.00;100731.72;7377121;19;20493;-80
2022/08/16 05:16:16;;;;;;;77.72;39.63;;;;;;;17.08;100.00;100729.06;7376952;19;20015;-78
2022/08/16 05:18:51;;;;;;;77.80;37.85;;;;;;;17.13;100.00;100737.81;7376766;19;19999;-78
2022/08/16 05:21:23;;;;;;;73.22;39.28;;;;;;;17.15;100.00;100733.38;7375646;19;20010;-78
2022/08/16 05:23:57;;;;;;;81.50;41.72;;;;;;;17.21;100.00;100737.69;7377827;19;20032;-78
2022/08/16 05:26:34;;;;;;;77.15;40.33;;;;;;;17.28;100.00;100745.53;7376259;19;20069;-77
2022/08/16 05:29:06;;;;;;;76.50;39.25;;;;;;;17.35;100.00;100741.00;7377654;19;20010;-78
2022/08/16 05:31:43;;;;;;;82.43;40.10;;;;;;;17.44;100.00;100746.16;7378909;19;20042;-78
2022/08/16 05:34:21;;;;;;;81.22;41.65;;;;;;;17.51;100.00;100753.13;7374046;19;20018;-78
2022/08/16 05:36:56;;;;;;;93.88;47.03;;;;;;;17.62;100.00;100755.59;7377256;19;20006;-78
2022/08/16 05:39:28;;;;;;;87.75;42.92;;;;;;;17.72;100.00;100751.00;7376711;19;20039;-78
2022/08/16 05:42:07;;;;;;;86.38;45.28;;;;;;;17.83;100.00;100754.34;7379706;19;20768;-78
2022/08/16 05:44:38;;;;;;;88.78;44.67;;;;;;;18.00;100.00;100756.69;7378853;19;20017;-78
2022/08/16 05:47:08;;;;;;;81.95;44.20;;;;;;;18.11;100.00;100754.72;7379685;19;20019;-77
2022/08/16 05:49:44;;;;;;;78.15;44.58;;;;;;;18.26;100.00;100757.09;7377257;19;20102;-79
2022/08/16 05:52:22;;;;;;;80.45;43.95;;;;;;;18.44;100.00;100754.06;7376183;19;20006;-79
2022/08/16 05:54:56;;;;;;;80.57;44.58;;;;;;;18.58;100.00;100753.78;7379224;19;20323;-78
2022/08/16 05:57:30;;;;;;;79.97;43.15;;;;;;;18.74;100.00;100762.31;7379149;19;20438;-79
2022/08/16 06:00:09;;;;;;;80.20;43.30;;;;;;;18.89;100.00;100765.50;7374141;19;20031;-76
2022/08/16 06:02:41;;;;;;;82.18;42.92;;;;;;;19.06;100.00;100767.78;7372251;19;20466;-75
2022/08/16 06:05:12;;;;;;;82.50;44.47;;;;;;;19.21;100.00;100759.44;7375859;19;20022;-76
2022/08/16 06:07:47;;;;;;;81.20;44.08;;;;;;;19.38;100.00;100758.19;7378159;19;20070;-76
2022/08/16 06:10:30;;;;;;;76.60;42.60;;;;;;;19.52;100.00;100761.41;7375596;19;20017;-75
2022/08/16 06:13:05;;;;;;;88.30;49.22;;;;;;;19.66;100.00;100769.06;7377958;19;20018;-76
2022/08/16 06:15:40;;;;;;;81.93;45.05;;;;;;;19.69;100.00;100761.88;7372410;19;20048;-76
2022/08/16 06:18:10;;;;;;;75.53;45.25;;;;;;;19.85;100.00;100773.84;7373746;19;20525;-77
2022/08/16 06:20:40;;;;;;;88.40;43.63;;;;;;;20.01;100.00;100778.75;7378878;19;20011;-78
2022/08/16 06:23:27;;;;;;;81.35;45.47;;;;;;;20.01;100.00;100770.78;7372186;19;20015;-79
2022/08/16 06:26:04;;;;;;;78.15;44.05;;;;;;;20.19;100.00;100776.47;7374176;19;20006;-76
2022/08/16 06:28:40;;;;;;;80.70;42.35;;;;;;;20.31;100.00;100775.25;7373753;19;20248;-79
2022/08/16 06:31:11;;;;;;;83.40;43.45;;;;;;;20.27;100.00;100776.28;7369698;19;20070;-81
2022/08/16 06:33:41;;;;;;;80.97;44.72;;;;;;;20.47;100.00;100778.41;7377433;19;20010;-78
2022/08/16 06:36:14;;;;;;;87.65;45.58;;;;;;;20.46;100.00;100774.00;7377431;19;20497;-80
2022/08/16 06:38:47;;;;;;;78.93;44.22;;;;;;;20.71;100.00;100766.16;7378765;19;20015;-78
2022/08/16 06:41:25;;;;;;;77.43;41.20;;;;;;;20.87;100.00;100767.44;7391498;19;20487;-79
2022/08/16 06:44:09;;;;;;;76.30;41.22;;;;;;;21.10;100.00;100764.94;7388877;19;20014;-80
2022/08/16 06:46:50;;;;;;;87.40;43.60;;;;;;;21.16;100.00;100769.19;7392441;19;20025;-79
2022/08/16 06:49:20;;;;;;;83.53;45.45;;;;;;;21.21;100.00;100767.25;7395686;19;20014;-80
2022/08/16 06:51:52;;;;;;;77.00;40.35;;;;;;;21.62;100.00;100781.97;7397290;19;20010;-80
2022/08/16 06:54:36;;;;;;;74.95;42.55;;;;;;;21.94;100.00;100779.97;7386351;19;20122;-82
2022/08/16 06:57:09;;;;;;;74.80;40.63;;;;;;;22.13;100.00;100776.66;7382801;19;20011;-77
2022/08/16 06:59:48;;;;;;;77.45;42.00;;;;;;;22.19;100.00;100783.56;7380456;19;20021;-75
2022/08/16 07:02:31;;;;;;;66.43;37.45;;;;;;;22.32;100.00;100781.34;7370115;19;20851;-77
2022/08/16 07:05:05;;;;;;;72.28;40.17;;;;;;;22.27;100.00;100778.81;7379060;19;20018;-76
2022/08/16 07:08:03;;;;;;;77.40;43.25;;;;;;;22.24;100.00;100784.28;7379779;19;20003;-76
2022/08/16 07:10:44;;;;;;;76.85;42.35;;;;;;;22.09;100.00;100784.81;7376594;19;20561;-76
2022/08/16 07:13:17;;;;;;;74.13;41.20;;;;;;;22.28;100.00;100787.72;7374881;19;20043;-78
2022/08/16 07:16:15;;;;;;;68.47;41.38;;;;;;;22.21;100.00;100794.19;7375388;19;20006;-78
2022/08/16 07:18:53;;;;;;;73.07;41.33;;;;;;;22.48;100.00;100795.88;7376044;19;20006;-77
2022/08/16 07:21:36;;;;;;;70.47;40.17;;;;;;;22.64;100.00;100801.53;7379414;19;20554;-77
2022/08/16 07:24:23;;;;;;;76.53;43.00;;;;;;;22.72;100.00;100807.47;7383192;19;20513;-78
2022/08/16 07:31:03;;;;;;;;;;;;;;;;;;;;;
2022/08/16 07:33:56;;;;;;;72.10;40.97;;;;;;;22.75;100.00;100813.56;7371349;19;20010;-75
2022/08/16 07:37:10;;;;;;;70.43;41.33;;;;;;;23.04;100.00;100820.50;7366073;19;20100;-76
2022/08/16 07:39:54;;;;;;;71.65;39.03;;;;;;;22.96;100.00;100816.38;7371678;19;20006;-75
2022/08/16 07:45:41;;;;;;;73.32;41.45;;;;;;;23.60;100.00;100824.56;7379047;19;20006;-75
2022/08/16 07:48:34;;;;;;;64.35;37.35;;;;;;;23.70;100.00;100829.50;7377732;19;20048;-76
2022/08/16 07:51:35;;;;;;;;;;;;;;;;;;;;;
2022/08/16 07:57:11;;;;;;;66.35;41.30;;;;;;;23.91;100.00;100834.91;7379151;19;20011;-76
2022/08/16 07:59:54;;;;;;;72.55;40.08;;;;;;;24.00;100.00;100837.16;7381286;19;20617;-75
2022/08/16 08:02:27;;;;;;;66.68;39.78;;;;;;;24.26;100.00;100833.41;7381401;19;20014;-75
2022/08/16 08:05:06;;;;;;;72.82;40.95;;;;;;;24.30;100.00;100833.19;7381265;19;20516;-75
2022/08/16 08:07:42;;;;;;;63.58;39.28;;;;;;;24.49;100.00;100837.75;7379078;19;20139;-76
2022/08/16 08:10:20;;;;;;;65.18;40.95;;;;;;;24.53;100.00;100831.31;7364934;19;20014;-75
2022/08/16 08:13:03;;;;;;;64.57;39.90;;;;;;;24.42;100.00;100826.44;7368544;19;20003;-75
2022/08/16 08:15:49;;;;;;;68.10;39.92;;;;;;;24.58;100.00;100827.50;7366905;19;20040;-76
2022/08/16 08:18:36;;;;;;;64.22;38.42;;;;;;;24.80;100.00;100834.56;7369245;19;20659;-75
2022/08/16 08:21:08;;;;;;;62.08;39.97;;;;;;;24.86;100.00;100832.47;7374260;19;20033;-75
2022/08/16 08:23:48;;;;;;;65.15;40.03;;;;;;;25.01;100.00;100842.50;7367262;19;20038;-76
2022/08/16 08:26:20;;;;;;;70.43;43.05;;;;;;;25.25;100.00;100836.91;7379610;19;20003;-79
2022/08/16 08:28:53;;;;;;;67.20;40.25;;;;;;;25.33;100.00;100843.66;7390800;19;20018;-79
2022/08/16 08:31:39;;;;;;;77.43;45.60;;;;;;;24.93;100.00;100847.34;7387578;19;20007;-79
2022/08/16 08:34:09;;;;;;;68.47;40.25;;;;;;;25.44;100.00;100851.22;7387765;19;20539;-79
2022/08/16 08:36:41;;;;;;;70.25;42.13;;;;;;;25.55;100.00;100846.19;7383962;19;20018;-77
2022/08/16 08:39:14;;;;;;;67.63;41.60;;;;;;;25.38;100.00;100856.88;7387230;19;20035;-79
2022/08/16 08:41:51;;;;;;;87.45;44.38;;;;;;;25.28;100.00;100866.31;7387209;19;20022;-77
2022/08/16 08:44:22;;;;;;;67.03;43.25;;;;;;;25.46;100.00;100870.81;7387732;19;20022;-76
2022/08/16 08:47:07;;;;;;;71.63;42.83;;;;;;;25.44;100.00;100870.00;7386795;19;20011;-79
2022/08/16 08:49:41;;;;;;;72.10;43.10;;;;;;;25.47;100.00;100866.31;7387653;19;20117;-78
2022/08/16 08:52:25;;;;;;;72.93;42.50;;;;;;;25.89;100.00;100863.38;7382341;19;20211;-79
2022/08/16 08:55:09;;;;;;;65.30;42.47;;;;;;;26.29;100.00;100876.50;7380674;19;20039;-77
2022/08/16 08:57:41;;;;;;;71.55;44.78;;;;;;;26.17;100.00;100870.88;7385417;19;20027;-78
2022/08/16 09:00:18;;;;;;;64.55;42.88;;;;;;;26.48;100.00;100884.53;7390019;19;20010;-77
2022/08/16 09:02:53;;;;;;;68.38;41.72;;;;;;;26.34;100.00;100882.53;7389220;19;20014;-78
2022/08/16 09:05:27;;;;;;;70.25;42.67;;;;;;;25.71;100.00;100887.50;7386824;19;20011;-79
2022/08/16 09:08:06;;;;;;;59.83;38.85;;;;;;;26.41;100.00;100888.47;7391669;19;20011;-78
2022/08/16 09:10:39;;;;;;;59.72;39.72;;;;;;;26.73;100.00;100892.19;7386187;19;20019;-77
2022/08/16 09:13:10;;;;;;;58.40;39.60;;;;;;;26.36;99.88;100896.78;7382280;19;20013;-79
2022/08/16 09:15:42;;;;;;;58.28;38.13;;;;;;;26.49;99.16;100894.34;7380465;19;20040;-81
2022/08/16 09:18:16;;;;;;;56.00;37.83;;;;;;;26.64;98.30;100890.84;7379403;19;20007;-79
2022/08/16 09:20:55;;;;;;;54.45;37.33;;;;;;;27.40;96.94;100896.59;7385788;19;20025;-80
2022/08/16 09:23:34;;;;;;;55.10;37.55;;;;;;;27.57;95.46;100883.06;7385734;19;19998;-79
2022/08/16 09:26:06;;;;;;;54.00;36.28;;;;;;;27.99;93.73;100889.66;7384132;19;20014;-79
2022/08/16 09:28:59;;;;;;;50.72;34.35;;;;;;;27.73;90.95;100895.69;7384245;19;20007;-80
2022/08/16 09:31:46;;;;;;;51.60;35.88;;;;;;;27.50;94.07;100905.91;7409578;19;20015;-83
2022/08/16 09:34:25;;;;;;;50.58;33.20;;;;;;;27.75;92.99;100901.84;7403399;19;20050;-76
2022/08/16 09:37:00;;;;;;;54.40;36.25;;;;;;;27.59;92.50;100902.72;7386006;19;20016;-83
2022/08/16 09:39:32;;;;;;;53.90;34.58;;;;;;;27.88;92.92;100897.50;7387802;19;20022;-79
2022/08/16 09:42:13;;;;;;;49.58;35.17;;;;;;;28.39;91.30;100898.97;7385258;19;20014;-79
2022/08/16 09:44:44;;;;;;;55.65;36.95;;;;;;;27.91;91.11;100903.59;7387973;19;20035;-77
2022/08/16 09:47:36;;;;;;;62.75;38.92;;;;;;;27.94;88.86;100902.53;7394892;19;20014;-78
2022/08/16 09:50:34;;;;;;;56.85;38.53;;;;;;;27.78;90.00;100904.38;7382678;19;20011;-78
2022/08/16 09:53:13;;;;;;;51.38;35.97;;;;;;;27.81;91.73;100907.78;7376270;19;20019;-78
2022/08/16 09:55:48;;;;;;;45.30;33.08;;;;;;;27.98;90.76;100898.72;7384507;19;20013;-79
2022/08/16 09:58:19;;;;;;;45.00;31.67;;;;;;;27.72;88.05;100907.41;7379598;19;20050;-78
2022/08/16 10:01:09;;;;;;;49.65;35.40;;;;;;;27.40;88.34;100907.38;7382314;19;20013;-77
2022/08/16 10:03:41;;;;;;;47.08;30.25;;;;;;;27.71;91.44;100911.06;7384242;19;20043;-78
2022/08/16 10:06:36;;;;;;;48.70;32.92;;;;;;;27.95;89.76;100909.66;7388103;19;20439;-78
2022/08/16 10:09:10;;;;;;;39.60;28.23;;;;;;;28.01;88.35;100920.09;7386375;19;20023;-79
2022/08/16 10:14:25;;;;;;;44.03;30.80;;;;;;;27.86;88.41;100912.91;7385933;19;20073;-77
2022/08/16 10:17:08;;;;;;;51.10;32.88;;;;;;;28.24;85.76;100916.94;7390572;19;20044;-77
2022/08/16 10:19:39;;;;;;;44.55;32.47;;;;;;;28.06;86.94;100918.00;7394567;19;20011;-78
2022/08/16 10:22:15;;;;;;;46.60;33.22;;;;;;;27.73;87.76;100922.63;7390933;19;20010;-79
2022/08/16 10:24:45;;;;;;;46.75;32.47;;;;;;;27.95;88.45;100915.06;7382774;19;20017;-77
2022/08/16 10:27:28;;;;;;;46.97;32.27;;;;;;;27.96;88.63;100912.28;7383819;19;20014;-77
2022/08/16 10:30:18;;;;;;;37.50;28.05;;;;;;;27.84;86.63;100912.13;7377449;19;20263;-77
2022/08/16 10:33:00;;;;;;;42.35;28.92;;;;;;;27.65;89.10;100918.56;7373236;19;20006;-79
2022/08/16 10:35:36;;;;;;;41.70;30.60;;;;;;;27.56;89.89;100924.41;7379607;19;20039;-76
2022/08/16 10:38:18;;;;;;;55.92;28.95;;;;;;;27.70;89.12;100914.72;7382783;19;20081;-80
2022/08/16 10:40:56;;;;;;;33.72;26.10;;;;;;;27.98;88.61;100926.53;7382888;19;20387;-79
2022/08/16 10:43:29;;;;;;;41.90;28.98;;;;;;;27.80;88.52;100924.91;7381561;19;20010;-77
2022/08/16 10:46:02;;;;;;;38.22;25.13;;;;;;;27.76;87.81;100933.25;7385332;19;20007;-79
2022/08/16 10:48:56;;;;;;;43.42;30.10;;;;;;;27.54;88.11;100929.03;7385471;19;20015;-78
2022/08/16 10:51:31;;;;;;;40.90;28.75;;;;;;;27.34;88.74;100940.03;7383829;19;20014;-80
2022/08/16 10:54:27;;;;;;;44.03;30.08;;;;;;;27.39;88.71;100937.94;7392715;19;20618;-79
2022/08/16 10:56:59;;;;;;;39.40;25.70;;;;;;;27.15;91.54;100944.66;7385694;19;20010;-77
2022/08/16 10:59:35;;;;;;;40.78;27.90;;;;;;;26.83;89.86;100944.56;7385949;19;20015;-78
2022/08/16 11:05:28;;;;;;;40.55;29.67;;;;;;;27.21;89.98;100949.72;7376907;19;20021;-73
2022/08/16 11:08:18;;;;;;;36.38;25.90;;;;;;;27.69;89.70;100951.56;7376236;19;20014;-74
2022/08/16 11:11:10;;;;;;;35.78;26.27;;;;;;;27.70;88.26;100957.84;7378090;19;20014;-74
2022/08/16 11:13:51;;;;;;;40.28;27.48;;;;;;;27.47;87.88;100953.69;7381523;19;20014;-75
2022/08/16 11:16:39;;;;;;;40.90;28.67;;;;;;;27.32;88.47;100950.88;7391902;19;20015;-75
2022/08/16 11:19:35;;;;;;;39.75;29.15;;;;;;;27.66;89.80;100947.22;7381023;19;20535;-75
2022/08/16 11:22:27;;;;;;;37.90;26.88;;;;;;;28.53;87.20;100939.47;7383805;19;20024;-75
2022/08/16 11:25:22;;;;;;;39.38;28.40;;;;;;;28.67;85.96;100946.75;7383703;19;20007;-75
2022/08/16 11:28:16;;;;;;;42.38;28.88;;;;;;;29.11;84.15;100945.88;7386227;19;20015;-75
2022/08/16 11:31:09;;;;;;;42.15;28.98;;;;;;;28.93;81.58;100954.16;7377255;19;20372;-73
2022/08/16 11:33:42;;;;;;;39.22;27.40;;;;;;;29.02;80.65;100957.25;7374714;19;20034;-80
2022/08/16 11:36:28;;;;;;;36.88;25.73;;;;;;;28.99;81.43;100960.16;7387244;19;20011;-74
2022/08/16 11:39:04;;;;;;;39.63;28.63;;;;;;;28.82;79.30;100959.34;7376906;19;20018;-73
2022/08/16 11:41:39;;;;;;;35.33;24.77;;;;;;;28.32;80.34;100967.72;7378102;19;20010;-75
2022/08/16 11:44:15;;;;;;;30.60;21.25;;;;;;;28.45;79.81;100970.56;7382580;19;20010;-73
2022/08/16 11:46:49;;;;;;;32.53;23.27;;;;;;;28.68;80.95;100975.47;7378106;19;20313;-73
2022/08/16 11:49:22;;;;;;;27.63;18.67;;;;;;;28.80;80.83;100974.72;7373871;19;20003;-73
2022/08/16 11:51:52;;;;;;;29.42;21.92;;;;;;;28.53;80.32;100968.28;7377635;19;20010;-74
2022/08/16 11:54:22;;;;;;;29.23;21.40;;;;;;;28.45;81.20;100967.88;7371483;19;20479;-74
2022/08/16 11:57:06;;;;;;;31.80;21.58;;;;;;;28.25;80.09;100972.59;7378155;19;20018;-73
2022/08/16 11:59:41;;;;;;;31.60;21.35;;;;;;;28.44;79.80;100971.53;7378005;19;20262;-72
2022/08/16 12:02:13;;;;;;;29.20;22.67;;;;;;;28.20;79.23;100973.78;7377507;19;20502;-75
2022/08/16 12:05:08;;;;;;;28.10;19.85;;;;;;;28.51;79.75;100972.91;7375354;19;20015;-72
2022/08/16 12:07:39;;;;;;;29.67;20.83;;;;;;;28.38;78.21;100979.97;7378563;19;20018;-74
2022/08/16 12:10:16;;;;;;;32.92;23.20;;;;;;;28.21;79.88;100983.63;7410700;19;20027;-82
2022/08/16 12:12:48;;;;;;;25.98;20.27;;;;;;;28.42;81.40;100982.41;7408635;19;20007;-81
2022/08/16 12:15:23;;;;;;;37.28;24.92;;;;;;;28.05;79.75;100980.97;7395290;19;20021;-81